Amsterdam, Netherlands

7:57 PM CEST on July 29, 2015 (GMT +0200)
Aalsmeerderbrug | | Change Station
CLOSE
Current Station
Personal Weather Station
Location: Aalsmeerderbrug, NOORD-HOLLAND
Elevation: -3 ft
Nearby Weather Stations

Elev -3 ft 52.27 °N, 4.75 °E | Updated 12 minutes ago

Scattered Clouds
Scattered Clouds
61.7 °F
Feels Like 61.7 °F
N
4.5
Wind Variable Wind from SW
Gusts 12.1 mph

Today
High -- | Low -- °F
--% Chance of Precip.
Yesterday
High -- | Low -- °F
Precip. -- in
5:56 AM 9:37 PM
Waxing Gibbous, 96% visible
Pressure 29.77 in
Visibility 6.2 miles
Clouds Few 1800 ft
Scattered Clouds 2600 ft
Dew Point 51 °F
Humidity 67%
Rainfall 0.07 in
Snow Depth Not available.
UV 1 out of 12
Pollen Not available.
Air Quality Not available.
Flu Activity Not available.
METAR EHKD 291755Z AUTO 29021G34KT 9999 FEW018CB SCT026 15/10 Q1008 BLU 27020G30KT 9999 FEW025 BKN070 TEMPO 27025G35KT 3500 SHRA FEW010 SCT020CB BKN030

More Conditions Fewer Conditions

Pressure 29.77 in
Visibility 6.2 miles
Clouds Few 1800 ft
Scattered Clouds 2600 ft
Dew Point 51 °F
Humidity 67%
Rainfall 0.07 in
Snow Depth Not available.
UV 1 out of 12
Pollen Not available.
Air Quality Not available.
Flu Activity Not available.
METAR EHKD 291755Z AUTO 29021G34KT 9999 FEW018CB SCT026 15/10 Q1008 BLU 27020G30KT 9999 FEW025 BKN070 TEMPO 27025G35KT 3500 SHRA FEW010 SCT020CB BKN030

More Conditions Fewer Conditions

10-Day Weather Forecast

×

Almanac

Astronomy

Jul. 29, 2015 Rise Set
Actual Time
Civil Twilight
Nautical Twilight
Astronomical Twilight
Moon
Length of Visible Light
Length of Day
Tomorrow will be .
, % of the Moon is Illuminated

Today's Extremes

Country Highs Country Lows

Community

WunderPhotos

Upload Photos

1,842,135 photos uploaded!

WunderBlogs® & News

Nearby

Air Quality

  Air Quality AQ Index Pollutant
Not available.

Snow Depth

Station Depth Elevation

Earthquake Activity

City Distance Mag. Time & Date
Minimum magnitude displayed is 2.5.

Coastal Water Temperatures

Place Temperature

Stations

Nearby Weather Stations

Station Location Temp. Windchill Dew Point Humidity Wind Precip. Elev Updated Type